メインページ
METAR-TAF:

METAR-TAF

空港 :

Yüksekova, トルコ

緯度: 37-33-06N, 経度: 44-14-01E, 海抜: 1950m

現時点の気象観測

当レポートは5時間49分前の12:50(UTC)に作成
変向風 3kt
気温 22°C
湿度 31%
気圧 1023 hPa
視程10km以上
1,500メートル以下は雲なし、積乱雲なし

METAR: LTCW 261250Z VRB03KT CAVOK 22/04 Q1023

時間: 21:39 (18:39 UTC)

予報

当レポートは1時間59分前の16:40(UTC)に作成
予報は26日の 18時(UTC)から 27日の 03時(UTC)まで有効
変向風 2kt
視程10km以上
1,500メートル以下は雲なし、積乱雲なし

TAF: LTCW 261640Z 2618/2703 VRB02KT CAVOK

4,000以上の空港の気象観測と天気予報(METAR報とTAF報)

利用可能な観測所は地図上に黄色い丸と赤い丸で示す。

丸の上にカーソルを重ねると観測所名を参照できる。

次にクリックすると気象観測と天気予報を参照できる。

マップの切り替え:黒色「×」印の緑ボタンをクリックして拡大、「-」印の緑ボタンをクリックして縮小、緑色の三角印をクリックして隣りの地図に切り替え


METAR-TAF: